Eskridge, Kansas
Current Conditions -  °F | °C
As of 1:53 PM on Sunday 23 Nov 2014 (Local Time) from KFOE Reporting Station
Light Rain Light Rain  
Wind Chill: 56°   Ceiling: 900
Heat Index: 56°   Visibility: 9mi
Dew Point: 53°   Wind: 10mph
Humidity: 90%   Direction: 320°NW
Pressure: 29.36"   Gusts: NA
Location:  38.86°N, 96.11°W
Report Text: KFOE 231953Z 32009KT 9SM -RA OVC009 13/12 A2936 RMK AO2 SLP938 P0003 T01330117
Loading
Personal Weather Stations






























Interactive Weather Map New forecast layout! Learn more

10-Day Weather Forecast

Advertisements
Track Severe Weather on mobile